Terminal Aerodrome Forecast
Issued by NWS

Home | Current Version | Previous Version | Text Only | Print | Product List | Glossary On
Versions: 1 2 3 4 5 6 7 8 9 10 11 12 13 14 15 16
000
FTUS46 KEKA 051120
TAFCEC
TAF
KCEC 051120Z 0512/0612 05003KT P6SM SKC
     FM051600 35009KT P6SM SKC
     FM052000 32017G26KT P6SM SKC
     FM060300 34014KT P6SM SKC
     FM060600 36008KT P6SM SKC=

USA.gov is the U.S. government's official web portal to all federal, state and local government web resources and services.